LOWS

Salzburg Airport

Salzburg, Austria
METAR LOWS 161220Z 16008KT 9999 -SN FEW015 SCT025 BKN035 M02/M05 Q1014 R15/490195 NOSIG
Observed Flight Rules
Dec-16 @ 12:20 UTC (25 minutes ago) Visual Flight Rules
Wind Visibility Clouds Conditions
160° at 8 knots 10,000+ meters
  • Few at 1,500' AGL
  • Scattered at 2,500' AGL
  • Broken at 3,500' AGL
  • Light Snow
Temperatures Readings
Current -2°C / 28°F
Dewpoint -5°C / 23°F
Humidity 80%
Altimeter 29.94" Hg
Pressure 1014 hPa
Elevation 430
METAR LOWS 161220Z 16008KT 9999 -SN FEW015 SCT025 BKN035 M02/M05 Q1014 R15/490195 NOSIG
Observed Flight Rules
Dec-16 @ 12:20 UTC
(25 minutes ago)
VFR
Wind Visibility
160° at 8 knots 10,000+ meters
Clouds
  • Few at 1,500' AGL
  • Scattered at 2,500' AGL
  • Broken at 3,500' AGL
Conditions
  • Light Snow
Temperature Dewpoint
-2°C / 28°F -5°C / 23°F
Humidity Altimeter Pressure
80% 29.94" Hg 1014 hPa